sensor_id;sensor_type;location;lat;lon;timestamp;P1;durP1;ratioP1;P2;durP2;ratioP2
8187;SDS011;4135;49.184;9.722;2022-12-05T00:02:19;2.92;;;1.90;;
8187;SDS011;4135;49.184;9.722;2022-12-05T00:04:49;4.00;;;2.10;;
8187;SDS011;4135;49.184;9.722;2022-12-05T00:07:18;3.03;;;1.77;;
8187;SDS011;4135;49.184;9.722;2022-12-05T00:09:48;5.13;;;2.40;;
8187;SDS011;4135;49.184;9.722;2022-12-05T00:12:18;3.10;;;1.80;;
8187;SDS011;4135;49.184;9.722;2022-12-05T00:14:48;2.43;;;1.53;;
8187;SDS011;4135;49.184;9.722;2022-12-05T00:17:17;6.43;;;2.05;;
8187;SDS011;4135;49.184;9.722;2022-12-05T00:19:47;2.65;;;1.67;;
8187;SDS011;4135;49.184;9.722;2022-12-05T00:22:17;2.58;;;1.42;;
8187;SDS011;4135;49.184;9.722;2022-12-05T00:24:46;1.63;;;1.55;;
8187;SDS011;4135;49.184;9.722;2022-12-05T00:27:16;2.40;;;1.80;;
8187;SDS011;4135;49.184;9.722;2022-12-05T00:29:45;2.53;;;1.48;;
8187;SDS011;4135;49.184;9.722;2022-12-05T00:32:15;1.83;;;1.75;;
8187;SDS011;4135;49.184;9.722;2022-12-05T00:34:44;4.38;;;1.65;;
8187;SDS011;4135;49.184;9.722;2022-12-05T00:37:14;3.10;;;1.77;;
8187;SDS011;4135;49.184;9.722;2022-12-05T00:39:43;2.03;;;1.42;;
8187;SDS011;4135;49.184;9.722;2022-12-05T00:42:13;3.35;;;2.03;;
8187;SDS011;4135;49.184;9.722;2022-12-05T00:44:42;2.33;;;1.35;;
8187;SDS011;4135;49.184;9.722;2022-12-05T00:47:12;3.40;;;1.80;;
8187;SDS011;4135;49.184;9.722;2022-12-05T00:49:42;5.00;;;1.52;;
8187;SDS011;4135;49.184;9.722;2022-12-05T00:52:11;1.95;;;1.45;;
8187;SDS011;4135;49.184;9.722;2022-12-05T00:54:41;2.30;;;1.40;;
8187;SDS011;4135;49.184;9.722;2022-12-05T00:57:10;1.95;;;1.35;;
8187;SDS011;4135;49.184;9.722;2022-12-05T00:59:40;3.67;;;1.90;;
8187;SDS011;4135;49.184;9.722;2022-12-05T01:02:09;3.53;;;1.73;;
8187;SDS011;4135;49.184;9.722;2022-12-05T01:04:39;2.17;;;1.40;;
8187;SDS011;4135;49.184;9.722;2022-12-05T01:07:08;4.20;;;1.80;;
8187;SDS011;4135;49.184;9.722;2022-12-05T01:09:38;2.35;;;1.67;;
8187;SDS011;4135;49.184;9.722;2022-12-05T01:12:08;5.65;;;1.50;;
8187;SDS011;4135;49.184;9.722;2022-12-05T01:14:37;2.38;;;1.42;;
8187;SDS011;4135;49.184;9.722;2022-12-05T01:17:07;3.92;;;1.65;;
8187;SDS011;4135;49.184;9.722;2022-12-05T01:19:37;2.97;;;1.83;;
8187;SDS011;4135;49.184;9.722;2022-12-05T01:22:07;3.38;;;1.70;;
8187;SDS011;4135;49.184;9.722;2022-12-05T01:24:36;2.92;;;1.55;;
8187;SDS011;4135;49.184;9.722;2022-12-05T01:27:06;2.50;;;1.30;;
8187;SDS011;4135;49.184;9.722;2022-12-05T01:29:35;3.08;;;1.50;;
8187;SDS011;4135;49.184;9.722;2022-12-05T01:32:05;1.63;;;1.52;;
8187;SDS011;4135;49.184;9.722;2022-12-05T01:34:35;3.67;;;1.63;;
8187;SDS011;4135;49.184;9.722;2022-12-05T01:37:04;1.88;;;1.50;;
8187;SDS011;4135;49.184;9.722;2022-12-05T01:39:34;2.87;;;1.93;;
8187;SDS011;4135;49.184;9.722;2022-12-05T01:42:04;2.87;;;1.60;;
8187;SDS011;4135;49.184;9.722;2022-12-05T01:47:03;2.75;;;1.77;;
8187;SDS011;4135;49.184;9.722;2022-12-05T01:49:35;2.47;;;1.25;;
8187;SDS011;4135;49.184;9.722;2022-12-05T01:52:09;2.33;;;1.58;;
8187;SDS011;4135;49.184;9.722;2022-12-05T01:54:42;1.77;;;1.30;;
8187;SDS011;4135;49.184;9.722;2022-12-05T01:57:13;3.58;;;1.92;;
8187;SDS011;4135;49.184;9.722;2022-12-05T01:59:44;2.35;;;1.42;;
8187;SDS011;4135;49.184;9.722;2022-12-05T02:02:17;3.13;;;1.63;;
8187;SDS011;4135;49.184;9.722;2022-12-05T02:04:59;2.55;;;1.40;;
8187;SDS011;4135;49.184;9.722;2022-12-05T02:07:39;1.67;;;1.20;;
8187;SDS011;4135;49.184;9.722;2022-12-05T02:10:11;1.67;;;1.45;;
8187;SDS011;4135;49.184;9.722;2022-12-05T02:12:41;2.38;;;1.75;;
8187;SDS011;4135;49.184;9.722;2022-12-05T02:15:35;3.67;;;2.25;;
8187;SDS011;4135;49.184;9.722;2022-12-05T02:27:26;2.90;;;2.00;;
8187;SDS011;4135;49.184;9.722;2022-12-05T02:30:11;3.05;;;1.90;;
8187;SDS011;4135;49.184;9.722;2022-12-05T02:33:06;4.40;;;2.28;;
8187;SDS011;4135;49.184;9.722;2022-12-05T02:36:23;3.67;;;2.23;;
8187;SDS011;4135;49.184;9.722;2022-12-05T02:39:11;6.07;;;2.90;;
8187;SDS011;4135;49.184;9.722;2022-12-05T02:41:49;3.23;;;1.73;;
8187;SDS011;4135;49.184;9.722;2022-12-05T02:44:27;3.60;;;2.03;;
8187;SDS011;4135;49.184;9.722;2022-12-05T02:46:59;7.23;;;2.67;;
8187;SDS011;4135;49.184;9.722;2022-12-05T02:49:31;3.92;;;2.83;;
8187;SDS011;4135;49.184;9.722;2022-12-05T02:52:05;5.40;;;3.30;;
8187;SDS011;4135;49.184;9.722;2022-12-05T02:54:40;5.57;;;2.60;;
8187;SDS011;4135;49.184;9.722;2022-12-05T02:57:12;5.07;;;2.80;;
8187;SDS011;4135;49.184;9.722;2022-12-05T02:59:43;5.38;;;3.30;;
8187;SDS011;4135;49.184;9.722;2022-12-05T03:02:26;6.20;;;2.95;;
8187;SDS011;4135;49.184;9.722;2022-12-05T03:08:01;5.45;;;3.42;;
8187;SDS011;4135;49.184;9.722;2022-12-05T03:10:36;5.72;;;3.10;;
8187;SDS011;4135;49.184;9.722;2022-12-05T03:13:12;5.85;;;3.70;;
8187;SDS011;4135;49.184;9.722;2022-12-05T03:15:47;6.13;;;3.67;;
8187;SDS011;4135;49.184;9.722;2022-12-05T03:18:29;5.35;;;3.10;;
8187;SDS011;4135;49.184;9.722;2022-12-05T03:23:54;6.18;;;3.67;;
8187;SDS011;4135;49.184;9.722;2022-12-05T03:26:43;6.53;;;3.55;;
8187;SDS011;4135;49.184;9.722;2022-12-05T03:29:24;7.07;;;3.95;;
8187;SDS011;4135;49.184;9.722;2022-12-05T03:32:05;9.73;;;4.63;;
8187;SDS011;4135;49.184;9.722;2022-12-05T03:34:54;7.40;;;4.57;;
8187;SDS011;4135;49.184;9.722;2022-12-05T03:42:52;5.63;;;3.92;;
8187;SDS011;4135;49.184;9.722;2022-12-05T03:45:30;5.85;;;3.63;;
8187;SDS011;4135;49.184;9.722;2022-12-05T03:48:07;10.13;;;4.40;;
8187;SDS011;4135;49.184;9.722;2022-12-05T03:50:43;7.40;;;4.40;;
8187;SDS011;4135;49.184;9.722;2022-12-05T03:53:24;11.07;;;5.10;;
8187;SDS011;4135;49.184;9.722;2022-12-05T03:56:20;11.63;;;4.83;;
8187;SDS011;4135;49.184;9.722;2022-12-05T03:58:54;6.88;;;4.28;;
8187;SDS011;4135;49.184;9.722;2022-12-05T04:01:30;7.32;;;4.25;;
8187;SDS011;4135;49.184;9.722;2022-12-05T04:04:03;7.82;;;4.53;;
8187;SDS011;4135;49.184;9.722;2022-12-05T04:06:39;9.67;;;4.50;;
8187;SDS011;4135;49.184;9.722;2022-12-05T04:09:12;6.68;;;4.45;;
8187;SDS011;4135;49.184;9.722;2022-12-05T04:12:08;6.63;;;4.23;;
8187;SDS011;4135;49.184;9.722;2022-12-05T04:14:41;6.37;;;4.03;;
8187;SDS011;4135;49.184;9.722;2022-12-05T04:20:02;9.37;;;4.63;;
8187;SDS011;4135;49.184;9.722;2022-12-05T04:23:00;8.77;;;4.80;;
8187;SDS011;4135;49.184;9.722;2022-12-05T04:28:47;7.23;;;3.80;;
8187;SDS011;4135;49.184;9.722;2022-12-05T04:31:34;4.50;;;3.67;;
8187;SDS011;4135;49.184;9.722;2022-12-05T04:34:11;7.53;;;4.30;;
8187;SDS011;4135;49.184;9.722;2022-12-05T04:36:49;8.20;;;4.63;;
8187;SDS011;4135;49.184;9.722;2022-12-05T04:39:36;7.93;;;4.50;;
8187;SDS011;4135;49.184;9.722;2022-12-05T04:42:19;10.43;;;4.55;;
8187;SDS011;4135;49.184;9.722;2022-12-05T04:44:53;10.68;;;4.78;;
8187;SDS011;4135;49.184;9.722;2022-12-05T04:47:29;7.20;;;4.47;;
8187;SDS011;4135;49.184;9.722;2022-12-05T04:50:03;7.65;;;4.07;;
8187;SDS011;4135;49.184;9.722;2022-12-05T04:52:38;6.47;;;4.53;;
8187;SDS011;4135;49.184;9.722;2022-12-05T04:55:17;7.83;;;4.40;;
8187;SDS011;4135;49.184;9.722;2022-12-05T05:00:34;9.10;;;5.43;;
8187;SDS011;4135;49.184;9.722;2022-12-05T05:05:55;9.07;;;4.53;;
8187;SDS011;4135;49.184;9.722;2022-12-05T05:08:26;8.80;;;5.13;;
8187;SDS011;4135;49.184;9.722;2022-12-05T05:11:10;7.77;;;4.27;;
8187;SDS011;4135;49.184;9.722;2022-12-05T05:13:43;8.20;;;4.63;;
8187;SDS011;4135;49.184;9.722;2022-12-05T05:16:16;9.57;;;4.68;;
8187;SDS011;4135;49.184;9.722;2022-12-05T05:18:52;7.73;;;4.30;;
8187;SDS011;4135;49.184;9.722;2022-12-05T05:23:58;8.27;;;4.17;;
8187;SDS011;4135;49.184;9.722;2022-12-05T05:26:28;7.53;;;4.35;;
8187;SDS011;4135;49.184;9.722;2022-12-05T05:28:59;7.93;;;4.30;;
8187;SDS011;4135;49.184;9.722;2022-12-05T05:31:29;6.80;;;4.30;;
8187;SDS011;4135;49.184;9.722;2022-12-05T05:33:58;6.05;;;3.75;;
8187;SDS011;4135;49.184;9.722;2022-12-05T05:36:28;8.67;;;4.80;;
8187;SDS011;4135;49.184;9.722;2022-12-05T05:38:58;9.17;;;4.57;;
8187;SDS011;4135;49.184;9.722;2022-12-05T05:41:30;7.73;;;4.70;;
8187;SDS011;4135;49.184;9.722;2022-12-05T05:44:01;9.03;;;4.50;;
8187;SDS011;4135;49.184;9.722;2022-12-05T05:46:32;8.40;;;4.65;;
8187;SDS011;4135;49.184;9.722;2022-12-05T05:49:03;7.60;;;4.80;;
8187;SDS011;4135;49.184;9.722;2022-12-05T05:51:33;8.10;;;4.57;;
8187;SDS011;4135;49.184;9.722;2022-12-05T05:54:03;8.80;;;4.83;;
8187;SDS011;4135;49.184;9.722;2022-12-05T05:56:32;6.75;;;4.30;;
8187;SDS011;4135;49.184;9.722;2022-12-05T05:59:02;8.18;;;4.57;;
8187;SDS011;4135;49.184;9.722;2022-12-05T06:01:32;8.15;;;3.75;;
8187;SDS011;4135;49.184;9.722;2022-12-05T06:04:01;8.30;;;4.33;;
8187;SDS011;4135;49.184;9.722;2022-12-05T06:06:31;8.27;;;4.47;;
8187;SDS011;4135;49.184;9.722;2022-12-05T06:09:01;10.90;;;5.03;;
8187;SDS011;4135;49.184;9.722;2022-12-05T06:11:30;7.15;;;3.95;;
8187;SDS011;4135;49.184;9.722;2022-12-05T06:14:00;8.70;;;5.27;;
8187;SDS011;4135;49.184;9.722;2022-12-05T06:16:30;8.15;;;4.38;;
8187;SDS011;4135;49.184;9.722;2022-12-05T06:18:59;9.67;;;4.23;;
8187;SDS011;4135;49.184;9.722;2022-12-05T06:21:29;7.72;;;4.50;;
8187;SDS011;4135;49.184;9.722;2022-12-05T06:23:58;7.05;;;4.55;;
8187;SDS011;4135;49.184;9.722;2022-12-05T06:26:28;6.82;;;4.55;;
8187;SDS011;4135;49.184;9.722;2022-12-05T06:28:57;8.50;;;4.35;;
8187;SDS011;4135;49.184;9.722;2022-12-05T06:31:27;7.22;;;4.10;;
8187;SDS011;4135;49.184;9.722;2022-12-05T06:34:02;9.82;;;4.68;;
8187;SDS011;4135;49.184;9.722;2022-12-05T06:36:32;6.93;;;4.07;;
8187;SDS011;4135;49.184;9.722;2022-12-05T06:39:02;8.87;;;4.73;;
8187;SDS011;4135;49.184;9.722;2022-12-05T06:41:32;11.83;;;4.93;;
8187;SDS011;4135;49.184;9.722;2022-12-05T06:44:02;12.90;;;5.07;;
8187;SDS011;4135;49.184;9.722;2022-12-05T06:46:32;13.52;;;5.22;;
8187;SDS011;4135;49.184;9.722;2022-12-05T06:49:01;14.02;;;5.57;;
8187;SDS011;4135;49.184;9.722;2022-12-05T06:51:31;19.88;;;5.60;;
8187;SDS011;4135;49.184;9.722;2022-12-05T06:54:00;10.52;;;5.07;;
8187;SDS011;4135;49.184;9.722;2022-12-05T06:56:30;12.75;;;4.65;;
8187;SDS011;4135;49.184;9.722;2022-12-05T06:58:59;8.18;;;4.45;;
8187;SDS011;4135;49.184;9.722;2022-12-05T07:01:29;9.52;;;4.75;;
8187;SDS011;4135;49.184;9.722;2022-12-05T07:04:18;8.88;;;5.18;;
8187;SDS011;4135;49.184;9.722;2022-12-05T07:06:52;11.02;;;4.95;;
8187;SDS011;4135;49.184;9.722;2022-12-05T07:09:23;10.88;;;4.70;;
8187;SDS011;4135;49.184;9.722;2022-12-05T07:12:13;10.40;;;5.17;;
8187;SDS011;4135;49.184;9.722;2022-12-05T07:14:44;9.90;;;5.43;;
8187;SDS011;4135;49.184;9.722;2022-12-05T07:17:14;9.77;;;4.40;;
8187;SDS011;4135;49.184;9.722;2022-12-05T07:19:45;9.23;;;4.40;;
8187;SDS011;4135;49.184;9.722;2022-12-05T07:22:17;7.57;;;4.60;;
8187;SDS011;4135;49.184;9.722;2022-12-05T07:24:49;7.18;;;3.95;;
8187;SDS011;4135;49.184;9.722;2022-12-05T07:27:20;6.67;;;4.37;;
8187;SDS011;4135;49.184;9.722;2022-12-05T07:29:49;9.57;;;4.43;;
8187;SDS011;4135;49.184;9.722;2022-12-05T07:32:19;7.30;;;3.90;;
8187;SDS011;4135;49.184;9.722;2022-12-05T07:34:49;8.80;;;4.10;;
8187;SDS011;4135;49.184;9.722;2022-12-05T07:37:18;8.20;;;4.28;;
8187;SDS011;4135;49.184;9.722;2022-12-05T07:39:48;6.70;;;3.75;;
8187;SDS011;4135;49.184;9.722;2022-12-05T07:42:18;7.80;;;4.05;;
8187;SDS011;4135;49.184;9.722;2022-12-05T07:44:48;6.35;;;4.35;;
8187;SDS011;4135;49.184;9.722;2022-12-05T07:47:17;8.45;;;4.57;;
8187;SDS011;4135;49.184;9.722;2022-12-05T07:49:47;8.55;;;4.38;;
8187;SDS011;4135;49.184;9.722;2022-12-05T07:52:16;8.63;;;4.53;;
8187;SDS011;4135;49.184;9.722;2022-12-05T07:54:46;7.82;;;4.05;;
8187;SDS011;4135;49.184;9.722;2022-12-05T07:57:15;6.15;;;4.30;;
8187;SDS011;4135;49.184;9.722;2022-12-05T07:59:45;6.80;;;3.97;;
8187;SDS011;4135;49.184;9.722;2022-12-05T08:02:15;8.77;;;3.45;;
8187;SDS011;4135;49.184;9.722;2022-12-05T08:04:44;7.13;;;4.35;;
8187;SDS011;4135;49.184;9.722;2022-12-05T08:07:14;5.35;;;3.50;;
8187;SDS011;4135;49.184;9.722;2022-12-05T08:09:43;8.15;;;3.92;;
8187;SDS011;4135;49.184;9.722;2022-12-05T08:12:13;6.93;;;4.05;;
8187;SDS011;4135;49.184;9.722;2022-12-05T08:14:42;7.57;;;3.90;;
8187;SDS011;4135;49.184;9.722;2022-12-05T08:17:12;6.72;;;3.38;;
8187;SDS011;4135;49.184;9.722;2022-12-05T08:19:42;6.33;;;3.47;;
8187;SDS011;4135;49.184;9.722;2022-12-05T08:22:11;7.87;;;4.63;;
8187;SDS011;4135;49.184;9.722;2022-12-05T08:24:41;6.70;;;3.72;;
8187;SDS011;4135;49.184;9.722;2022-12-05T08:27:11;7.05;;;3.80;;
8187;SDS011;4135;49.184;9.722;2022-12-05T08:29:40;6.85;;;3.97;;
8187;SDS011;4135;49.184;9.722;2022-12-05T08:32:10;5.93;;;3.72;;
8187;SDS011;4135;49.184;9.722;2022-12-05T08:34:39;7.68;;;3.55;;
8187;SDS011;4135;49.184;9.722;2022-12-05T08:37:09;6.72;;;3.15;;
8187;SDS011;4135;49.184;9.722;2022-12-05T08:39:38;6.97;;;4.15;;
8187;SDS011;4135;49.184;9.722;2022-12-05T08:42:08;8.35;;;3.97;;
8187;SDS011;4135;49.184;9.722;2022-12-05T08:44:37;7.10;;;3.97;;
8187;SDS011;4135;49.184;9.722;2022-12-05T08:47:07;8.97;;;4.40;;
8187;SDS011;4135;49.184;9.722;2022-12-05T08:49:36;9.43;;;3.67;;
8187;SDS011;4135;49.184;9.722;2022-12-05T08:52:06;6.07;;;3.43;;
8187;SDS011;4135;49.184;9.722;2022-12-05T08:54:35;8.57;;;4.13;;
8187;SDS011;4135;49.184;9.722;2022-12-05T08:57:05;8.40;;;3.80;;
8187;SDS011;4135;49.184;9.722;2022-12-05T08:59:34;6.60;;;3.67;;
8187;SDS011;4135;49.184;9.722;2022-12-05T09:02:04;6.00;;;3.20;;
8187;SDS011;4135;49.184;9.722;2022-12-05T09:04:34;7.93;;;3.73;;
8187;SDS011;4135;49.184;9.722;2022-12-05T09:07:03;10.53;;;4.60;;
8187;SDS011;4135;49.184;9.722;2022-12-05T09:09:34;6.53;;;3.42;;
8187;SDS011;4135;49.184;9.722;2022-12-05T09:12:04;5.63;;;3.60;;
8187;SDS011;4135;49.184;9.722;2022-12-05T09:14:33;7.97;;;3.80;;
8187;SDS011;4135;49.184;9.722;2022-12-05T09:17:03;11.20;;;4.57;;
8187;SDS011;4135;49.184;9.722;2022-12-05T09:19:32;6.67;;;3.93;;
8187;SDS011;4135;49.184;9.722;2022-12-05T09:22:03;5.13;;;3.30;;
8187;SDS011;4135;49.184;9.722;2022-12-05T09:24:33;8.40;;;3.73;;
8187;SDS011;4135;49.184;9.722;2022-12-05T09:27:02;8.98;;;3.90;;
8187;SDS011;4135;49.184;9.722;2022-12-05T09:29:32;7.73;;;3.50;;
8187;SDS011;4135;49.184;9.722;2022-12-05T09:32:01;6.23;;;3.70;;
8187;SDS011;4135;49.184;9.722;2022-12-05T09:34:31;5.37;;;3.07;;
8187;SDS011;4135;49.184;9.722;2022-12-05T09:37:01;5.00;;;3.47;;
8187;SDS011;4135;49.184;9.722;2022-12-05T09:39:33;6.07;;;3.37;;
8187;SDS011;4135;49.184;9.722;2022-12-05T09:48:05;8.03;;;3.33;;
8187;SDS011;4135;49.184;9.722;2022-12-05T09:50:48;5.70;;;3.53;;
8187;SDS011;4135;49.184;9.722;2022-12-05T09:56:03;6.17;;;3.40;;
8187;SDS011;4135;49.184;9.722;2022-12-05T09:58:49;5.78;;;3.50;;
8187;SDS011;4135;49.184;9.722;2022-12-05T10:10:02;5.63;;;3.30;;
8187;SDS011;4135;49.184;9.722;2022-12-05T10:21:01;5.53;;;3.07;;
8187;SDS011;4135;49.184;9.722;2022-12-05T10:23:43;6.03;;;3.23;;
8187;SDS011;4135;49.184;9.722;2022-12-05T10:26:20;7.23;;;3.67;;
8187;SDS011;4135;49.184;9.722;2022-12-05T10:31:37;13.27;;;4.03;;
8187;SDS011;4135;49.184;9.722;2022-12-05T10:34:14;10.47;;;4.37;;
8187;SDS011;4135;49.184;9.722;2022-12-05T10:36:54;5.47;;;2.93;;
8187;SDS011;4135;49.184;9.722;2022-12-05T10:39:30;6.22;;;3.20;;
8187;SDS011;4135;49.184;9.722;2022-12-05T10:42:00;5.27;;;3.80;;
8187;SDS011;4135;49.184;9.722;2022-12-05T10:44:30;6.40;;;3.30;;
8187;SDS011;4135;49.184;9.722;2022-12-05T10:47:00;9.52;;;3.30;;
8187;SDS011;4135;49.184;9.722;2022-12-05T10:49:30;6.22;;;3.75;;
8187;SDS011;4135;49.184;9.722;2022-12-05T10:52:01;9.13;;;3.40;;
8187;SDS011;4135;49.184;9.722;2022-12-05T10:54:35;6.35;;;3.25;;
8187;SDS011;4135;49.184;9.722;2022-12-05T10:57:23;7.18;;;3.78;;
8187;SDS011;4135;49.184;9.722;2022-12-05T11:00:07;6.88;;;3.45;;
8187;SDS011;4135;49.184;9.722;2022-12-05T11:02:39;5.50;;;3.35;;
8187;SDS011;4135;49.184;9.722;2022-12-05T11:05:10;5.88;;;3.45;;
8187;SDS011;4135;49.184;9.722;2022-12-05T11:10:35;5.63;;;3.55;;
8187;SDS011;4135;49.184;9.722;2022-12-05T11:13:15;9.18;;;3.45;;
8187;SDS011;4135;49.184;9.722;2022-12-05T11:15:53;11.18;;;3.80;;
8187;SDS011;4135;49.184;9.722;2022-12-05T11:18:30;5.55;;;3.33;;
8187;SDS011;4135;49.184;9.722;2022-12-05T11:21:11;5.00;;;3.13;;
8187;SDS011;4135;49.184;9.722;2022-12-05T11:23:42;4.88;;;2.95;;
8187;SDS011;4135;49.184;9.722;2022-12-05T11:26:19;9.05;;;3.60;;
8187;SDS011;4135;49.184;9.722;2022-12-05T11:29:10;5.72;;;3.08;;
8187;SDS011;4135;49.184;9.722;2022-12-05T11:32:03;5.35;;;2.90;;
8187;SDS011;4135;49.184;9.722;2022-12-05T11:34:36;7.50;;;2.78;;
8187;SDS011;4135;49.184;9.722;2022-12-05T11:37:12;5.90;;;2.85;;
8187;SDS011;4135;49.184;9.722;2022-12-05T11:39:50;8.27;;;3.30;;
8187;SDS011;4135;49.184;9.722;2022-12-05T11:42:22;4.90;;;2.90;;
8187;SDS011;4135;49.184;9.722;2022-12-05T11:48:22;4.53;;;2.47;;
8187;SDS011;4135;49.184;9.722;2022-12-05T11:51:07;5.33;;;2.57;;
8187;SDS011;4135;49.184;9.722;2022-12-05T11:56:53;4.93;;;2.40;;
8187;SDS011;4135;49.184;9.722;2022-12-05T11:59:33;5.03;;;3.03;;
8187;SDS011;4135;49.184;9.722;2022-12-05T12:16:29;7.22;;;2.83;;
8187;SDS011;4135;49.184;9.722;2022-12-05T12:28:20;6.00;;;2.33;;
8187;SDS011;4135;49.184;9.722;2022-12-05T12:34:02;6.22;;;2.28;;
8187;SDS011;4135;49.184;9.722;2022-12-05T12:42:26;4.47;;;2.30;;
8187;SDS011;4135;49.184;9.722;2022-12-05T12:45:07;3.05;;;1.77;;
8187;SDS011;4135;49.184;9.722;2022-12-05T12:48:05;3.05;;;2.08;;
8187;SDS011;4135;49.184;9.722;2022-12-05T12:50:45;2.85;;;2.10;;
8187;SDS011;4135;49.184;9.722;2022-12-05T13:04:30;3.17;;;2.40;;
8187;SDS011;4135;49.184;9.722;2022-12-05T13:07:04;4.00;;;2.35;;
8187;SDS011;4135;49.184;9.722;2022-12-05T13:09:48;3.55;;;2.33;;
8187;SDS011;4135;49.184;9.722;2022-12-05T13:12:23;2.45;;;1.85;;
8187;SDS011;4135;49.184;9.722;2022-12-05T13:15:15;4.15;;;2.05;;
8187;SDS011;4135;49.184;9.722;2022-12-05T13:17:47;5.93;;;2.60;;
8187;SDS011;4135;49.184;9.722;2022-12-05T13:20:21;2.70;;;1.95;;
8187;SDS011;4135;49.184;9.722;2022-12-05T13:22:54;2.65;;;1.90;;
8187;SDS011;4135;49.184;9.722;2022-12-05T13:25:29;3.95;;;2.20;;
8187;SDS011;4135;49.184;9.722;2022-12-05T13:28:02;3.92;;;2.15;;
8187;SDS011;4135;49.184;9.722;2022-12-05T13:30:33;3.72;;;2.15;;
8187;SDS011;4135;49.184;9.722;2022-12-05T13:33:23;4.10;;;2.05;;
8187;SDS011;4135;49.184;9.722;2022-12-05T13:35:55;4.38;;;2.20;;
8187;SDS011;4135;49.184;9.722;2022-12-05T13:38:54;5.45;;;2.55;;
8187;SDS011;4135;49.184;9.722;2022-12-05T13:41:49;3.88;;;2.17;;
8187;SDS011;4135;49.184;9.722;2022-12-05T13:47:32;5.80;;;2.35;;
8187;SDS011;4135;49.184;9.722;2022-12-05T13:52:49;3.60;;;2.03;;
8187;SDS011;4135;49.184;9.722;2022-12-05T13:55:28;3.40;;;1.80;;
8187;SDS011;4135;49.184;9.722;2022-12-05T13:57:59;4.50;;;2.40;;
8187;SDS011;4135;49.184;9.722;2022-12-05T14:03:14;3.47;;;2.15;;
8187;SDS011;4135;49.184;9.722;2022-12-05T14:05:50;3.88;;;2.47;;
8187;SDS011;4135;49.184;9.722;2022-12-05T14:21:38;4.73;;;2.73;;
8187;SDS011;4135;49.184;9.722;2022-12-05T14:24:22;4.63;;;2.27;;
8187;SDS011;4135;49.184;9.722;2022-12-05T14:32:28;4.13;;;2.63;;
8187;SDS011;4135;49.184;9.722;2022-12-05T14:35:10;4.43;;;2.30;;
8187;SDS011;4135;49.184;9.722;2022-12-05T14:37:53;6.70;;;2.13;;
8187;SDS011;4135;49.184;9.722;2022-12-05T14:40:32;4.77;;;2.83;;
8187;SDS011;4135;49.184;9.722;2022-12-05T14:46:01;3.00;;;2.00;;
8187;SDS011;4135;49.184;9.722;2022-12-05T14:48:39;3.50;;;1.97;;
8187;SDS011;4135;49.184;9.722;2022-12-05T14:54:02;3.83;;;2.40;;
8187;SDS011;4135;49.184;9.722;2022-12-05T14:56:39;4.22;;;2.38;;
8187;SDS011;4135;49.184;9.722;2022-12-05T14:59:27;2.72;;;1.92;;
8187;SDS011;4135;49.184;9.722;2022-12-05T15:02:04;4.20;;;2.20;;
8187;SDS011;4135;49.184;9.722;2022-12-05T15:04:35;4.43;;;1.90;;
8187;SDS011;4135;49.184;9.722;2022-12-05T15:09:58;5.40;;;2.33;;
8187;SDS011;4135;49.184;9.722;2022-12-05T15:17:53;2.83;;;1.92;;
8187;SDS011;4135;49.184;9.722;2022-12-05T15:20:48;4.47;;;2.50;;
8187;SDS011;4135;49.184;9.722;2022-12-05T15:23:46;6.25;;;2.50;;
8187;SDS011;4135;49.184;9.722;2022-12-05T15:26:21;3.83;;;2.42;;
8187;SDS011;4135;49.184;9.722;2022-12-05T15:31:50;3.78;;;2.17;;
8187;SDS011;4135;49.184;9.722;2022-12-05T15:34:53;5.20;;;2.75;;
8187;SDS011;4135;49.184;9.722;2022-12-05T15:40:22;4.60;;;2.03;;
8187;SDS011;4135;49.184;9.722;2022-12-05T15:42:54;4.40;;;2.30;;
8187;SDS011;4135;49.184;9.722;2022-12-05T15:45:26;3.75;;;1.75;;
8187;SDS011;4135;49.184;9.722;2022-12-05T15:50:36;3.70;;;2.00;;
8187;SDS011;4135;49.184;9.722;2022-12-05T15:53:12;4.63;;;2.13;;
8187;SDS011;4135;49.184;9.722;2022-12-05T15:55:53;3.93;;;1.93;;
8187;SDS011;4135;49.184;9.722;2022-12-05T15:58:33;5.22;;;2.30;;
8187;SDS011;4135;49.184;9.722;2022-12-05T16:06:36;4.60;;;2.75;;
8187;SDS011;4135;49.184;9.722;2022-12-05T16:09:13;2.97;;;1.88;;
8187;SDS011;4135;49.184;9.722;2022-12-05T16:11:58;5.90;;;2.40;;
8187;SDS011;4135;49.184;9.722;2022-12-05T16:14:31;6.87;;;2.50;;
8187;SDS011;4135;49.184;9.722;2022-12-05T16:17:05;3.53;;;1.80;;
8187;SDS011;4135;49.184;9.722;2022-12-05T16:19:42;2.60;;;1.60;;
8187;SDS011;4135;49.184;9.722;2022-12-05T16:24:42;5.22;;;2.35;;
8187;SDS011;4135;49.184;9.722;2022-12-05T16:27:30;4.00;;;2.38;;
8187;SDS011;4135;49.184;9.722;2022-12-05T16:32:41;5.30;;;2.67;;
8187;SDS011;4135;49.184;9.722;2022-12-05T16:38:05;3.80;;;2.20;;
8187;SDS011;4135;49.184;9.722;2022-12-05T16:40:40;4.07;;;2.40;;
8187;SDS011;4135;49.184;9.722;2022-12-05T16:43:27;3.72;;;1.70;;
8187;SDS011;4135;49.184;9.722;2022-12-05T16:48:43;4.05;;;1.90;;
8187;SDS011;4135;49.184;9.722;2022-12-05T16:51:22;2.67;;;1.88;;
8187;SDS011;4135;49.184;9.722;2022-12-05T16:53:56;4.72;;;2.03;;
8187;SDS011;4135;49.184;9.722;2022-12-05T16:56:27;4.95;;;2.20;;
8187;SDS011;4135;49.184;9.722;2022-12-05T16:59:03;4.50;;;2.30;;
8187;SDS011;4135;49.184;9.722;2022-12-05T17:01:34;3.47;;;1.90;;
8187;SDS011;4135;49.184;9.722;2022-12-05T17:04:03;3.90;;;1.90;;
8187;SDS011;4135;49.184;9.722;2022-12-05T17:06:33;3.90;;;2.10;;
8187;SDS011;4135;49.184;9.722;2022-12-05T17:09:02;6.88;;;2.45;;
8187;SDS011;4135;49.184;9.722;2022-12-05T17:11:32;3.50;;;2.25;;
8187;SDS011;4135;49.184;9.722;2022-12-05T17:14:05;4.55;;;2.03;;
8187;SDS011;4135;49.184;9.722;2022-12-05T17:16:37;4.00;;;1.45;;
8187;SDS011;4135;49.184;9.722;2022-12-05T17:19:07;2.45;;;1.83;;
8187;SDS011;4135;49.184;9.722;2022-12-05T17:21:38;4.72;;;2.20;;
8187;SDS011;4135;49.184;9.722;2022-12-05T17:24:14;4.93;;;2.45;;
8187;SDS011;4135;49.184;9.722;2022-12-05T17:26:45;3.38;;;2.15;;
8187;SDS011;4135;49.184;9.722;2022-12-05T17:29:15;3.63;;;2.25;;
8187;SDS011;4135;49.184;9.722;2022-12-05T17:31:44;3.75;;;2.00;;
8187;SDS011;4135;49.184;9.722;2022-12-05T17:34:15;5.82;;;2.42;;
8187;SDS011;4135;49.184;9.722;2022-12-05T17:36:45;3.03;;;1.80;;
8187;SDS011;4135;49.184;9.722;2022-12-05T17:39:15;3.70;;;2.08;;
8187;SDS011;4135;49.184;9.722;2022-12-05T17:41:44;3.95;;;2.15;;
8187;SDS011;4135;49.184;9.722;2022-12-05T17:44:14;3.90;;;2.38;;
8187;SDS011;4135;49.184;9.722;2022-12-05T17:46:44;3.45;;;1.92;;
8187;SDS011;4135;49.184;9.722;2022-12-05T17:49:14;7.18;;;2.45;;
8187;SDS011;4135;49.184;9.722;2022-12-05T17:51:45;3.85;;;2.10;;
8187;SDS011;4135;49.184;9.722;2022-12-05T17:54:16;5.75;;;1.92;;
8187;SDS011;4135;49.184;9.722;2022-12-05T17:56:45;3.08;;;1.88;;
8187;SDS011;4135;49.184;9.722;2022-12-05T17:59:15;3.47;;;2.42;;
8187;SDS011;4135;49.184;9.722;2022-12-05T18:01:44;3.65;;;1.90;;
8187;SDS011;4135;49.184;9.722;2022-12-05T18:04:14;3.13;;;1.88;;
8187;SDS011;4135;49.184;9.722;2022-12-05T18:06:43;4.10;;;2.30;;
8187;SDS011;4135;49.184;9.722;2022-12-05T18:09:13;3.85;;;1.98;;
8187;SDS011;4135;49.184;9.722;2022-12-05T18:11:43;2.70;;;1.92;;
8187;SDS011;4135;49.184;9.722;2022-12-05T18:14:13;2.38;;;1.75;;
8187;SDS011;4135;49.184;9.722;2022-12-05T18:16:42;3.00;;;1.83;;
8187;SDS011;4135;49.184;9.722;2022-12-05T18:19:12;2.88;;;1.95;;
8187;SDS011;4135;49.184;9.722;2022-12-05T18:21:41;3.30;;;2.08;;
8187;SDS011;4135;49.184;9.722;2022-12-05T18:24:11;3.47;;;2.03;;
8187;SDS011;4135;49.184;9.722;2022-12-05T18:26:40;2.72;;;1.88;;
8187;SDS011;4135;49.184;9.722;2022-12-05T18:29:10;2.95;;;1.75;;
8187;SDS011;4135;49.184;9.722;2022-12-05T18:31:39;3.53;;;2.15;;
8187;SDS011;4135;49.184;9.722;2022-12-05T18:34:10;4.20;;;2.20;;
8187;SDS011;4135;49.184;9.722;2022-12-05T18:36:40;2.78;;;1.70;;
8187;SDS011;4135;49.184;9.722;2022-12-05T18:39:11;3.08;;;1.92;;
8187;SDS011;4135;49.184;9.722;2022-12-05T18:41:42;3.10;;;2.10;;
8187;SDS011;4135;49.184;9.722;2022-12-05T18:44:12;3.30;;;1.90;;
8187;SDS011;4135;49.184;9.722;2022-12-05T18:46:41;5.37;;;2.07;;
8187;SDS011;4135;49.184;9.722;2022-12-05T18:49:11;3.00;;;2.17;;
8187;SDS011;4135;49.184;9.722;2022-12-05T18:51:41;4.33;;;2.47;;
8187;SDS011;4135;49.184;9.722;2022-12-05T18:54:10;5.03;;;2.15;;
8187;SDS011;4135;49.184;9.722;2022-12-05T18:56:40;18.60;;;2.83;;
8187;SDS011;4135;49.184;9.722;2022-12-05T18:59:14;3.08;;;2.17;;
8187;SDS011;4135;49.184;9.722;2022-12-05T19:01:46;2.47;;;1.53;;